Weather at San Diego International Airport

Public forecast

Using degrees Fahrenheit for public forecast. Weather courtesy of forecast.io.

Current aviation weather report (METAR) for San Diego International Airport

Retrieved 2021/01/28 06:51 UTC (35 minutes ago):

KSAN 280651Z 00000KT 10SM SCT250 11/05 A3009 RMK AO2 SLP187 T01060050

Aviation forecast (TAF) for San Diego International Airport

Retrieved 2021/01/28 06:36 UTC (50 minutes ago):

TAF KSAN 280535Z 2806/2912 VRB04KT P6SM SCT250 FM282100 22009KT P6SM SCT050 FM290230 18011G18KT P6SM BKN025 OVC030 FM290600 17012G20KT P6SM -SHRA OVC025